Time;durP1;ratioP1;P1;durP2;ratioP2;P2;SDS_P1;SDS_P2;PMS_P1;PMS_P2;Temp;Humidity;BMP_temperature;BMP_pressure;BME280_temperature;BME280_humidity;BME280_pressure;Samples;Min_cycle;Max_cycle;Signal;HPM_P1;HPM_P2
2022/12/21 00:01:43;;;;;;;1999.90;999.90;;;;;;;2.19;100.00;98398.47;5052184;28;20111;-74
2022/12/21 00:04:09;;;;;;;1999.90;999.90;;;;;;;2.27;100.00;98390.88;5051979;28;20021;-74
2022/12/21 00:06:37;;;;;;;1999.90;999.90;;;;;;;2.28;100.00;98392.53;5051922;28;20049;-74
2022/12/21 00:09:04;;;;;;;1999.90;999.90;;;;;;;2.36;100.00;98399.44;5055027;28;20043;-75
2022/12/21 00:11:31;;;;;;;1999.90;999.90;;;;;;;2.37;100.00;98388.44;5055864;28;20103;-75
2022/12/21 00:13:58;;;;;;;1999.90;999.90;;;;;;;2.39;100.00;98393.59;5052180;28;20371;-75
2022/12/21 00:16:26;;;;;;;1999.90;999.90;;;;;;;2.34;100.00;98383.50;5051823;28;20466;-74
2022/12/21 00:18:51;;;;;;;1999.90;999.90;;;;;;;2.38;100.00;98383.84;5051939;28;20470;-75
2022/12/21 00:21:21;;;;;;;1999.90;999.90;;;;;;;2.42;100.00;98390.41;5051775;28;20032;-75
2022/12/21 00:23:49;;;;;;;1999.90;999.90;;;;;;;2.33;100.00;98379.16;5051911;28;20033;-75
2022/12/21 00:26:18;;;;;;;1999.90;999.90;;;;;;;2.35;100.00;98387.03;5051717;28;20029;-74
2022/12/21 00:28:43;;;;;;;1999.90;999.90;;;;;;;2.24;100.00;98385.09;5051495;28;20029;-74
2022/12/21 00:31:12;;;;;;;1999.90;999.90;;;;;;;2.13;100.00;98384.84;5051853;28;20366;-75
2022/12/21 00:33:39;;;;;;;1999.90;999.90;;;;;;;2.08;100.00;98382.03;5051509;28;20032;-75
2022/12/21 00:36:05;;;;;;;1999.90;999.90;;;;;;;2.07;100.00;98380.38;5051351;28;20444;-75
2022/12/21 00:38:33;;;;;;;1999.90;999.90;;;;;;;2.03;100.00;98379.22;5051246;28;20044;-75
2022/12/21 00:41:02;;;;;;;1999.90;999.90;;;;;;;1.93;100.00;98375.41;5051399;28;20021;-75
2022/12/21 00:43:28;;;;;;;1999.90;999.90;;;;;;;1.83;100.00;98370.56;5051342;28;20116;-74
2022/12/21 00:45:53;;;;;;;1999.90;999.90;;;;;;;1.67;100.00;98363.13;5051794;28;20061;-75
2022/12/21 00:48:19;;;;;;;1999.90;999.90;;;;;;;1.73;100.00;98374.84;5051055;28;20056;-75
2022/12/21 00:50:44;;;;;;;1999.90;999.90;;;;;;;1.72;100.00;98378.63;5051105;28;20051;-75
2022/12/21 00:53:09;;;;;;;1999.90;999.90;;;;;;;1.70;100.00;98378.84;5051094;28;20120;-75
2022/12/21 00:55:35;;;;;;;1999.90;999.90;;;;;;;1.70;100.00;98376.16;5051143;28;20377;-75
2022/12/21 00:58:00;;;;;;;1999.90;999.90;;;;;;;1.76;100.00;98377.91;5051064;28;20078;-75
2022/12/21 01:00:26;;;;;;;1999.90;999.90;;;;;;;1.83;100.00;98372.44;5050927;28;20035;-75
2022/12/21 01:02:52;;;;;;;1999.90;999.90;;;;;;;1.88;100.00;98373.38;5051080;28;20036;-75
2022/12/21 01:05:17;;;;;;;1999.90;999.90;;;;;;;1.88;100.00;98378.78;5050613;28;20454;-75
2022/12/21 01:07:42;;;;;;;1999.90;999.90;;;;;;;1.81;100.00;98361.06;5050692;28;20029;-75
2022/12/21 01:10:08;;;;;;;1999.90;999.90;;;;;;;1.75;100.00;98362.00;5050830;28;20040;-75
2022/12/21 01:12:34;;;;;;;1999.90;999.90;;;;;;;1.83;100.00;98367.88;5052231;28;20033;-78
2022/12/21 01:14:59;;;;;;;1999.90;999.90;;;;;;;1.88;100.00;98364.50;5054785;28;20056;-75
2022/12/21 01:17:24;;;;;;;1999.90;999.90;;;;;;;1.81;100.00;98361.91;5051034;28;20076;-75
2022/12/21 01:19:50;;;;;;;1999.90;999.90;;;;;;;1.82;100.00;98371.63;5050723;28;20479;-75
2022/12/21 01:22:15;;;;;;;1999.90;999.90;;;;;;;1.70;100.00;98359.13;5050586;28;20033;-74
2022/12/21 01:24:41;;;;;;;1999.90;999.90;;;;;;;1.66;100.00;98350.69;5050545;28;20021;-75
2022/12/21 01:27:06;;;;;;;1999.90;999.90;;;;;;;1.68;100.00;98350.47;5049918;28;20033;-75
2022/12/21 01:29:31;;;;;;;1999.90;999.90;;;;;;;1.64;100.00;98344.72;5051565;28;20024;-75
2022/12/21 01:31:57;;;;;;;1999.90;999.90;;;;;;;1.68;100.00;98347.78;5050557;28;20040;-75
2022/12/21 01:34:22;;;;;;;1999.90;999.90;;;;;;;1.69;100.00;98342.16;5050665;28;20021;-75
2022/12/21 01:36:47;;;;;;;1999.90;999.90;;;;;;;1.67;100.00;98341.56;5050716;28;20064;-75
2022/12/21 01:39:13;;;;;;;1999.90;999.90;;;;;;;1.68;100.00;98343.22;5051335;28;20116;-75
2022/12/21 01:41:38;;;;;;;1999.90;999.90;;;;;;;1.68;100.00;98335.13;5050696;28;20079;-73
2022/12/21 01:44:24;;;;;;;1999.90;999.90;;;;;;;1.69;100.00;98339.47;5050436;28;20041;-73
2022/12/21 01:46:49;;;;;;;1999.90;999.90;;;;;;;1.70;100.00;98340.25;5050601;28;20128;-75
2022/12/21 01:49:24;;;;;;;1999.90;999.90;;;;;;;1.66;100.00;98329.13;5050306;28;20037;-75
2022/12/21 01:51:58;;;;;;;1999.90;999.90;;;;;;;1.61;100.00;98329.81;5050336;28;20060;-74
2022/12/21 01:54:35;;;;;;;1999.90;999.90;;;;;;;1.68;100.00;98327.03;5050758;28;20037;-74
2022/12/21 01:57:04;;;;;;;1999.90;999.90;;;;;;;1.70;100.00;98324.91;5051247;28;20037;-75
2022/12/21 01:59:37;;;;;;;1999.90;999.90;;;;;;;1.78;100.00;98330.00;5050730;28;20025;-75
2022/12/21 02:02:08;;;;;;;1999.90;999.90;;;;;;;1.74;100.00;98334.19;5049679;28;20033;-75
2022/12/21 02:04:34;;;;;;;1999.90;999.90;;;;;;;1.87;100.00;98336.72;5051753;28;20024;-73
2022/12/21 02:06:59;;;;;;;1999.90;999.90;;;;;;;1.90;100.00;98328.16;5053117;28;20041;-76
2022/12/21 02:09:31;;;;;;;1999.90;999.90;;;;;;;1.94;100.00;98326.63;5052904;28;20043;-72
2022/12/21 02:11:59;;;;;;;1999.90;999.90;;;;;;;1.99;100.00;98334.84;5048588;28;20100;-73
2022/12/21 02:14:27;;;;;;;1999.90;999.90;;;;;;;1.97;100.00;98333.44;5039720;28;20053;-73
2022/12/21 02:17:14;;;;;;;1999.90;999.90;;;;;;;1.91;100.00;98328.97;5035481;28;20493;-74
2022/12/21 02:19:59;;;;;;;1999.90;999.90;;;;;;;1.91;100.00;98327.09;5052800;28;20033;-75
2022/12/21 02:22:51;;;;;;;1999.90;999.90;;;;;;;1.84;100.00;98329.09;5052737;28;20033;-74
2022/12/21 02:25:51;;;;;;;1999.90;999.90;;;;;;;1.85;100.00;98332.59;5052431;28;20071;-75
2022/12/21 02:28:38;;;;;;;1999.90;999.90;;;;;;;1.74;100.00;98309.94;5029887;28;20052;-74
2022/12/21 02:31:31;;;;;;;1999.90;999.90;;;;;;;1.74;100.00;98320.72;5031104;28;20486;-74
2022/12/21 02:34:14;;;;;;;1999.90;999.90;;;;;;;1.69;100.00;98314.38;5029685;28;20038;-74
2022/12/21 02:36:42;;;;;;;1999.90;999.90;;;;;;;1.58;100.00;98310.59;5028338;28;20061;-74
2022/12/21 02:39:24;;;;;;;1999.90;999.90;;;;;;;1.57;100.00;98308.94;5032137;28;20033;-74
2022/12/21 02:41:59;;;;;;;1999.90;999.90;;;;;;;1.47;100.00;98311.38;5051191;28;20040;-74
2022/12/21 02:44:38;;;;;;;1999.90;999.90;;;;;;;1.34;100.00;98295.38;5053218;28;20032;-74
2022/12/21 02:47:08;;;;;;;1999.90;999.90;;;;;;;1.35;100.00;98305.09;5053635;28;20064;-74
2022/12/21 02:49:45;;;;;;;1999.90;999.90;;;;;;;1.39;100.00;98306.28;5052108;28;20124;-74
2022/12/21 02:52:20;;;;;;;1999.90;999.90;;;;;;;1.36;100.00;98304.06;5053089;28;20025;-74
2022/12/21 02:54:46;;;;;;;1999.90;999.90;;;;;;;1.30;100.00;98296.88;5049667;28;20052;-73
2022/12/21 02:57:12;;;;;;;1999.90;999.90;;;;;;;1.30;100.00;98297.72;5050637;28;20041;-74
2022/12/21 02:59:43;;;;;;;1999.90;999.90;;;;;;;1.33;100.00;98299.13;5052241;28;20437;-74
2022/12/21 03:02:34;;;;;;;1999.90;999.90;;;;;;;1.31;100.00;98293.97;5052756;28;20052;-74
2022/12/21 03:05:12;;;;;;;1999.90;999.90;;;;;;;1.32;100.00;98295.59;5045382;28;20100;-76
2022/12/21 03:07:56;;;;;;;1999.90;999.90;;;;;;;1.38;100.00;98291.19;5033932;28;20739;-74
2022/12/21 03:10:42;;;;;;;1999.90;999.90;;;;;;;1.31;100.00;98288.59;5032670;28;20393;-74
2022/12/21 03:13:46;;;;;;;1999.90;999.90;;;;;;;1.40;100.00;98283.69;5032693;28;20482;-74
2022/12/21 03:16:16;;;;;;;1999.90;999.90;;;;;;;1.43;100.00;98281.38;5033073;28;20079;-74
2022/12/21 03:19:01;;;;;;;1999.90;999.90;;;;;;;1.39;100.00;98282.88;5032686;28;20112;-74
2022/12/21 03:21:33;;;;;;;1999.90;999.90;;;;;;;1.43;100.00;98277.84;5032463;28;20124;-73
2022/12/21 03:24:09;;;;;;;1999.90;999.90;;;;;;;1.40;100.00;98273.75;5032449;28;20029;-73
2022/12/21 03:26:45;;;;;;;1999.90;999.90;;;;;;;1.39;100.00;98280.16;5048410;28;20048;-74
2022/12/21 03:29:16;;;;;;;1999.90;999.90;;;;;;;1.33;100.00;98270.31;5052042;28;20032;-74
2022/12/21 03:31:46;;;;;;;1999.90;999.90;;;;;;;1.36;100.00;98269.03;5052065;28;20402;-74
2022/12/21 03:34:24;;;;;;;1999.90;999.90;;;;;;;1.36;100.00;98264.47;5052322;28;20087;-74
2022/12/21 03:37:08;;;;;;;1999.90;999.90;;;;;;;1.32;100.00;98262.44;5051999;28;20024;-74
2022/12/21 03:39:37;;;;;;;1999.90;999.90;;;;;;;1.44;100.00;98266.81;5052174;28;20036;-74
2022/12/21 03:42:11;;;;;;;1999.90;999.90;;;;;;;1.50;100.00;98265.09;5038515;28;20546;-74
2022/12/21 03:44:57;;;;;;;1999.90;999.90;;;;;;;1.49;100.00;98261.59;5052002;28;20082;-74
2022/12/21 03:47:34;;;;;;;;;;;;;;;1.51;100.00;98255.94;5040445;28;20116;-74
2022/12/21 03:50:04;;;;;;;1999.90;999.90;;;;;;;1.48;100.00;98245.63;5031034;28;19913;-74
2022/12/21 03:52:46;;;;;;;1999.90;999.90;;;;;;;1.55;100.00;98246.34;5031947;28;20442;-74
2022/12/21 03:55:18;;;;;;;1999.90;999.90;;;;;;;1.50;100.00;98249.72;5032729;28;20041;-74
2022/12/21 03:57:44;;;;;;;1999.90;999.90;;;;;;;1.50;100.00;98249.72;5032064;28;20359;-74
2022/12/21 04:00:11;;;;;;;1999.90;999.90;;;;;;;1.62;100.00;98247.09;5048817;28;20032;-74
2022/12/21 04:02:57;;;;;;;1999.90;999.90;;;;;;;1.57;100.00;98244.25;5051584;28;20033;-74
2022/12/21 04:05:35;;;;;;;1999.90;999.90;;;;;;;1.66;100.00;98247.44;5051401;28;20025;-74
2022/12/21 04:08:01;;;;;;;1999.90;999.90;;;;;;;1.76;100.00;98244.97;5051457;28;20552;-74
2022/12/21 04:10:27;;;;;;;1999.90;999.90;;;;;;;1.72;100.00;98250.03;5051856;28;20331;-71
2022/12/21 04:12:52;;;;;;;1999.90;999.90;;;;;;;1.76;100.00;98235.03;5051323;28;20028;-74
2022/12/21 04:15:24;;;;;;;1999.90;999.90;;;;;;;1.71;100.00;98248.41;5051410;28;20060;-75
2022/12/21 04:17:52;;;;;;;1999.90;999.90;;;;;;;1.73;100.00;98243.59;5050682;28;20033;-74
2022/12/21 04:20:23;;;;;;;1999.90;999.90;;;;;;;1.71;100.00;98240.31;5051436;28;20032;-74
2022/12/21 04:28:23;;;;;;;1999.90;999.90;;;;;;;1.74;100.00;98245.22;5051384;28;19919;-74
2022/12/21 04:30:48;;;;;;;1999.90;999.90;;;;;;;1.80;100.00;98238.09;5054117;28;20063;-74
2022/12/21 04:33:17;;;;;;;1999.90;999.90;;;;;;;1.80;100.00;98232.69;5053287;28;20037;-74
2022/12/21 04:38:29;;;;;;;1999.90;999.90;;;;;;;1.82;100.00;98241.34;5031436;28;20168;-74
2022/12/21 04:40:55;;;;;;;1999.90;999.90;;;;;;;1.72;100.00;98241.97;5031193;28;20030;-74
2022/12/21 04:43:21;;;;;;;1999.90;999.90;;;;;;;1.76;100.00;98237.72;5041871;28;20104;-74
2022/12/21 04:45:46;;;;;;;1999.90;999.90;;;;;;;1.74;100.00;98237.16;5050108;28;20040;-74
2022/12/21 04:48:12;;;;;;;1999.90;999.90;;;;;;;1.78;100.00;98235.63;5051290;28;20029;-74
2022/12/21 04:50:38;;;;;;;1999.90;999.90;;;;;;;1.77;100.00;98236.69;5050586;28;20074;-74
2022/12/21 04:53:04;;;;;;;1999.90;999.90;;;;;;;1.80;100.00;98233.53;5051173;28;20025;-75
2022/12/21 04:55:29;;;;;;;1999.90;999.90;;;;;;;1.86;100.00;98235.28;5054692;28;20047;-74
2022/12/21 04:57:54;;;;;;;1999.90;999.90;;;;;;;1.98;100.00;98241.50;5050903;28;20477;-73
2022/12/21 05:00:20;;;;;;;1999.90;999.90;;;;;;;1.92;100.00;98237.03;5050599;28;20044;-74
2022/12/21 05:02:45;;;;;;;1999.90;999.90;;;;;;;1.96;100.00;98227.44;5050184;28;20039;-72
2022/12/21 05:05:10;;;;;;;1999.90;999.90;;;;;;;1.89;100.00;98236.69;5049363;28;20035;-72
2022/12/21 05:07:36;;;;;;;1999.90;999.90;;;;;;;1.86;100.00;98227.19;5049841;28;20124;-72
2022/12/21 05:10:01;;;;;;;1999.90;999.90;;;;;;;1.79;100.00;98229.16;5050707;28;20037;-72
2022/12/21 05:12:27;;;;;;;1999.90;999.90;;;;;;;1.74;100.00;98222.84;5050299;28;20106;-72
2022/12/21 05:14:52;;;;;;;1999.90;999.90;;;;;;;1.68;100.00;98219.19;5049716;28;20041;-75
2022/12/21 05:17:17;;;;;;;1999.90;999.90;;;;;;;1.75;100.00;98219.94;5050627;28;20126;-72
2022/12/21 05:19:46;;;;;;;1999.90;999.90;;;;;;;1.78;100.00;98214.06;5050153;28;20025;-71
2022/12/21 05:22:16;;;;;;;1999.90;999.90;;;;;;;1.80;100.00;98214.66;5050593;28;20029;-75
2022/12/21 05:24:41;;;;;;;1999.90;999.90;;;;;;;1.86;100.00;98211.00;5050524;28;20063;-74
2022/12/21 05:27:06;;;;;;;1999.90;999.90;;;;;;;1.90;100.00;98212.19;5050406;28;20454;-74
2022/12/21 05:29:32;;;;;;;1999.90;999.90;;;;;;;1.82;100.00;98220.63;5050261;28;20028;-74
2022/12/21 05:31:57;;;;;;;1999.90;999.90;;;;;;;1.77;100.00;98215.09;5050318;28;20098;-74
2022/12/21 05:34:22;;;;;;;1999.90;999.90;;;;;;;1.68;100.00;98216.50;5050033;28;20466;-74
2022/12/21 05:36:47;;;;;;;1999.90;999.90;;;;;;;1.69;100.00;98218.16;5050282;28;20124;-74
2022/12/21 05:39:13;;;;;;;1999.90;999.90;;;;;;;1.68;100.00;98221.91;5050562;28;20025;-74
2022/12/21 05:41:38;;;;;;;1999.90;999.90;;;;;;;1.65;100.00;98218.84;5050176;28;20056;-71
2022/12/21 05:44:04;;;;;;;1999.90;999.90;;;;;;;1.65;100.00;98219.66;5050104;28;20539;-75
2022/12/21 05:46:29;;;;;;;1999.90;999.90;;;;;;;1.66;100.00;98218.59;5050392;28;20332;-74
2022/12/21 05:48:55;;;;;;;1999.90;999.90;;;;;;;1.79;100.00;98220.25;5050595;28;20094;-74
2022/12/21 05:51:21;;;;;;;1999.90;999.90;;;;;;;1.84;100.00;98229.31;5050335;28;20025;-73
2022/12/21 05:53:46;;;;;;;1999.90;999.90;;;;;;;1.81;100.00;98223.56;5050279;28;20121;-74
2022/12/21 05:56:12;;;;;;;1999.90;999.90;;;;;;;1.78;100.00;98224.84;5050278;28;20099;-75
2022/12/21 05:58:38;;;;;;;1999.90;999.90;;;;;;;1.76;100.00;98226.94;5050284;28;20041;-72
2022/12/21 06:01:06;;;;;;;1999.90;999.90;;;;;;;1.84;100.00;98225.78;5050196;28;20044;-74
2022/12/21 06:03:32;;;;;;;1999.90;999.90;;;;;;;1.84;100.00;98221.22;5049849;28;20120;-75
2022/12/21 06:06:11;;;;;;;1999.90;999.90;;;;;;;1.89;100.00;98215.94;5049938;28;20120;-74
2022/12/21 06:08:37;;;;;;;1999.90;999.90;;;;;;;1.95;100.00;98211.47;5049953;28;20116;-74
2022/12/21 06:11:07;;;;;;;1999.90;999.90;;;;;;;1.99;100.00;98218.06;5050187;28;20104;-72
2022/12/21 06:13:33;;;;;;;1999.90;999.90;;;;;;;1.97;100.00;98223.66;5051660;28;20020;-74
2022/12/21 06:16:10;;;;;;;1999.90;999.90;;;;;;;1.96;100.00;98232.00;5053918;28;20473;-74
2022/12/21 06:18:35;;;;;;;1999.90;999.90;;;;;;;1.98;100.00;98217.22;5054493;28;20039;-72
2022/12/21 06:21:01;;;;;;;1999.90;999.90;;;;;;;2.05;100.00;98227.91;5054197;28;20029;-74
2022/12/21 06:23:26;;;;;;;1999.90;999.90;;;;;;;2.06;100.00;98233.09;5053919;28;20025;-74
2022/12/21 06:25:56;;;;;;;1999.90;999.90;;;;;;;2.03;100.00;98230.03;5053905;28;20036;-72
2022/12/21 06:28:22;;;;;;;1999.90;999.90;;;;;;;2.12;100.00;98224.06;5053799;28;20393;-73
2022/12/21 06:30:50;;;;;;;1999.90;999.90;;;;;;;2.12;100.00;98215.13;5054074;28;20040;-72
2022/12/21 06:33:15;;;;;;;1999.90;999.90;;;;;;;2.19;100.00;98223.13;5053978;28;20032;-73
2022/12/21 06:35:41;;;;;;;1999.90;999.90;;;;;;;2.12;100.00;98217.84;5053170;28;20021;-73
2022/12/21 06:38:06;;;;;;;1999.90;999.90;;;;;;;2.23;100.00;98224.25;5053079;28;20028;-72
2022/12/21 06:40:31;;;;;;;1999.90;999.90;;;;;;;2.23;100.00;98221.56;5054026;28;20021;-80
2022/12/21 06:42:57;;;;;;;1999.90;999.90;;;;;;;2.23;100.00;98216.16;5057372;28;20029;-75
2022/12/21 06:45:22;;;;;;;1999.90;999.90;;;;;;;2.23;100.00;98221.56;5057834;28;20093;-73
2022/12/21 06:47:47;;;;;;;1999.90;999.90;;;;;;;2.37;100.00;98223.81;5054789;28;20036;-73
2022/12/21 06:50:12;;;;;;;1999.90;999.90;;;;;;;2.33;100.00;98228.03;5053400;28;20394;-73
2022/12/21 06:52:38;;;;;;;1999.90;999.90;;;;;;;2.38;100.00;98222.72;5053338;28;20091;-73
2022/12/21 06:55:04;;;;;;;1999.90;999.90;;;;;;;2.34;100.00;98224.28;5054593;28;20071;-72
2022/12/21 06:57:31;;;;;;;1999.90;999.90;;;;;;;2.32;100.00;98225.56;5053177;28;20027;-73
2022/12/21 06:59:57;;;;;;;1999.90;999.90;;;;;;;2.32;100.00;98217.47;5053073;28;20029;-73
2022/12/21 07:02:23;;;;;;;1999.90;999.90;;;;;;;2.32;100.00;98225.56;5053127;28;20102;-73
2022/12/21 07:04:52;;;;;;;1999.90;999.90;;;;;;;2.27;100.00;98228.97;5052637;28;20029;-73
2022/12/21 07:07:17;;;;;;;1999.90;999.90;;;;;;;2.34;100.00;98229.66;5053340;28;20068;-73
2022/12/21 07:09:43;;;;;;;1999.90;999.90;;;;;;;2.36;100.00;98227.53;5053286;28;20087;-73
2022/12/21 07:12:08;;;;;;;1999.90;999.90;;;;;;;2.43;100.00;98222.03;5053049;28;20031;-73
2022/12/21 07:14:33;;;;;;;1999.90;999.90;;;;;;;2.39;100.00;98226.25;5052893;28;20025;-74
2022/12/21 07:16:59;;;;;;;1999.90;999.90;;;;;;;2.37;100.00;98214.88;5052391;28;20094;-73
2022/12/21 07:19:25;;;;;;;1999.90;999.90;;;;;;;2.37;100.00;98220.28;5052655;28;20025;-73
2022/12/21 07:21:50;;;;;;;1999.90;999.90;;;;;;;2.39;100.00;98226.25;5052982;28;20032;-73
2022/12/21 07:24:16;;;;;;;1999.90;999.90;;;;;;;2.38;100.00;98219.22;5052801;28;20405;-73
2022/12/21 07:26:41;;;;;;;1999.90;999.90;;;;;;;2.41;100.00;98224.16;5052781;28;20021;-73
2022/12/21 07:29:09;;;;;;;1999.90;999.90;;;;;;;2.47;100.00;98217.81;5052654;28;20133;-73
2022/12/21 07:31:34;;;;;;;1999.90;999.90;;;;;;;2.46;100.00;98216.16;5052942;28;20420;-74
2022/12/21 07:34:00;;;;;;;1999.90;999.90;;;;;;;2.54;100.00;98223.88;5044515;28;20090;-73
2022/12/21 07:36:25;;;;;;;1999.90;999.90;;;;;;;2.61;100.00;98216.47;5032510;28;20060;-72
2022/12/21 07:38:52;;;;;;;1999.90;999.90;;;;;;;2.53;100.00;98223.09;5040620;28;20047;-73
2022/12/21 07:41:18;;;;;;;1999.90;999.90;;;;;;;2.57;100.00;98228.81;5052153;28;20461;-72
2022/12/21 07:43:43;;;;;;;1999.90;999.90;;;;;;;2.55;100.00;98222.81;5051944;28;20116;-72
2022/12/21 07:46:09;;;;;;;1999.90;999.90;;;;;;;2.60;100.00;98226.44;5052284;28;20041;-71
2022/12/21 07:48:36;;;;;;;1999.90;999.90;;;;;;;2.62;100.00;98226.22;5050604;28;20033;-73
2022/12/21 07:51:02;;;;;;;1999.90;999.90;;;;;;;2.66;100.00;98227.41;5043163;28;20030;-72
2022/12/21 07:53:27;;;;;;;1999.90;999.90;;;;;;;2.67;100.00;98224.44;5031878;28;20025;-72
2022/12/21 07:56:05;;;;;;;1999.90;999.90;;;;;;;2.65;100.00;98228.44;5032183;28;20529;-72
2022/12/21 07:58:33;;;;;;;1999.90;999.90;;;;;;;2.69;100.00;98216.91;5030997;28;20033;-72
2022/12/21 08:01:10;;;;;;;1999.90;999.90;;;;;;;2.68;100.00;98225.28;5047188;28;20025;-72
2022/12/21 08:03:36;;;;;;;1999.90;999.90;;;;;;;2.85;100.00;98228.06;5049177;28;20119;-73
2022/12/21 08:06:03;;;;;;;1999.90;999.90;;;;;;;2.84;100.00;98224.53;5051541;28;20045;-72
2022/12/21 08:08:29;;;;;;;1999.90;999.90;;;;;;;2.90;100.00;98228.16;5050647;28;20024;-73
2022/12/21 08:10:54;;;;;;;1999.90;999.90;;;;;;;3.02;100.00;98226.22;5051771;28;20111;-73
2022/12/21 08:13:20;;;;;;;1999.90;999.90;;;;;;;3.05;100.00;98218.47;5051650;28;20029;-72
2022/12/21 08:15:45;;;;;;;1999.90;999.90;;;;;;;3.10;100.00;98217.75;5051351;28;20020;-72
2022/12/21 08:18:11;;;;;;;1999.90;999.90;;;;;;;3.17;100.00;98227.34;5051863;28;20040;-72
2022/12/21 08:20:36;;;;;;;1999.90;999.90;;;;;;;3.29;100.00;98226.50;5051687;28;20466;-73
2022/12/21 08:23:02;;;;;;;1999.90;999.90;;;;;;;3.25;100.00;98226.16;5051285;28;20029;-72
2022/12/21 08:25:27;;;;;;;1999.90;999.90;;;;;;;3.31;100.00;98229.75;5051109;28;20037;-72
2022/12/21 08:27:52;;;;;;;1999.90;999.90;;;;;;;3.37;100.00;98229.63;5051269;28;20033;-72
2022/12/21 08:30:17;;;;;;;1999.90;999.90;;;;;;;3.34;100.00;98223.88;5051260;28;20470;-73
2022/12/21 08:32:43;;;;;;;1999.90;999.90;;;;;;;3.44;100.00;98224.88;5051679;28;20053;-73
2022/12/21 08:35:09;;;;;;;1999.90;999.90;;;;;;;3.51;100.00;98224.75;5053362;28;20120;-71
2022/12/21 08:37:34;;;;;;;1999.90;999.90;;;;;;;3.54;100.00;98224.25;5051645;28;20127;-71
2022/12/21 08:39:59;;;;;;;1999.90;999.90;;;;;;;3.60;100.00;98225.97;5051077;28;20032;-72
2022/12/21 08:42:25;;;;;;;1999.90;999.90;;;;;;;3.71;100.00;98223.19;5051033;28;20068;-72
2022/12/21 08:44:50;;;;;;;1999.90;999.90;;;;;;;3.77;100.00;98224.09;5050788;28;20036;-73
2022/12/21 08:47:15;;;;;;;1999.90;999.90;;;;;;;3.80;100.00;98212.78;5051308;28;20557;-72
2022/12/21 08:49:41;;;;;;;1999.90;999.90;;;;;;;3.88;100.00;98217.81;5051396;28;20039;-72
2022/12/21 08:52:06;;;;;;;1999.90;999.90;;;;;;;3.82;100.00;98221.50;5052456;28;20060;-73
2022/12/21 08:54:31;;;;;;;1999.90;999.90;;;;;;;3.99;100.00;98227.72;5051792;28;20501;-72
2022/12/21 08:56:57;;;;;;;1999.90;999.90;;;;;;;4.08;100.00;98218.09;5050804;28;20378;-71
2022/12/21 08:59:22;;;;;;;1999.90;999.90;;;;;;;4.39;100.00;98221.25;5050804;28;20036;-72
2022/12/21 09:01:47;;;;;;;1999.90;999.90;;;;;;;4.45;100.00;98220.28;5050697;28;20029;-71
2022/12/21 09:04:13;;;;;;;1999.90;999.90;;;;;;;4.71;100.00;98224.97;5050691;28;20021;-71
2022/12/21 09:06:38;;;;;;;1999.90;999.90;;;;;;;4.41;100.00;98227.25;5050396;28;20045;-72
2022/12/21 09:09:04;;;;;;;1999.90;999.90;;;;;;;4.58;100.00;98223.44;5050389;28;20071;-72
2022/12/21 09:11:29;;;;;;;1999.90;999.90;;;;;;;4.44;100.00;98230.28;5049504;28;20040;-71
2022/12/21 09:13:55;;;;;;;1999.90;999.90;;;;;;;4.63;100.00;98228.13;5045254;28;20037;-72
2022/12/21 09:16:22;;;;;;;1999.90;999.90;;;;;;;4.55;100.00;98232.06;5040351;28;20415;-72
2022/12/21 09:18:49;;;;;;;1999.90;999.90;;;;;;;4.25;100.00;98221.63;5050323;28;20462;-72
2022/12/21 09:21:18;;;;;;;1999.90;999.90;;;;;;;4.15;100.00;98231.47;5049294;28;20033;-72
2022/12/21 09:23:43;;;;;;;1999.90;999.90;;;;;;;4.05;100.00;98221.31;5049828;28;20166;-72
2022/12/21 09:26:09;;;;;;;1999.90;999.90;;;;;;;3.95;100.00;98221.13;5050576;28;20486;-72
2022/12/21 09:28:35;;;;;;;1999.90;999.90;;;;;;;3.93;100.00;98220.59;5050376;28;20040;-73
2022/12/21 09:31:21;;;;;;;1999.90;999.90;;;;;;;3.97;100.00;98219.03;5050150;28;20074;-72
2022/12/21 09:33:47;;;;;;;1999.90;999.90;;;;;;;3.91;100.00;98209.19;5048794;28;20020;-73
2022/12/21 09:36:13;;;;;;;1999.90;999.90;;;;;;;3.99;100.00;98222.28;5050131;28;20085;-73
2022/12/21 09:38:39;;;;;;;1999.90;999.90;;;;;;;3.99;100.00;98210.66;5050150;28;20021;-72
2022/12/21 09:41:04;;;;;;;1999.90;999.90;;;;;;;4.03;100.00;98212.63;5049996;28;20508;-72
2022/12/21 09:43:44;;;;;;;1999.90;999.90;;;;;;;4.03;100.00;98214.50;5050175;28;20025;-72
2022/12/21 09:46:12;;;;;;;1999.90;999.90;;;;;;;4.02;100.00;98216.38;5050507;28;20177;-73
2022/12/21 09:48:49;;;;;;;1999.90;999.90;;;;;;;3.99;100.00;98211.47;5049983;28;20541;-73
2022/12/21 09:51:19;;;;;;;1999.90;999.90;;;;;;;4.05;100.00;98204.25;5050398;28;20036;-73
2022/12/21 09:54:04;;;;;;;1999.90;999.90;;;;;;;4.13;100.00;98196.56;5050923;28;20025;-73
2022/12/21 09:56:30;;;;;;;1999.90;999.90;;;;;;;4.17;100.00;98188.72;5049264;28;20124;-73
2022/12/21 09:59:00;;;;;;;1999.90;999.90;;;;;;;4.10;100.00;98191.59;5050207;28;20104;-73
2022/12/21 10:02:03;;;;;;;1999.90;999.90;;;;;;;4.23;100.00;98193.97;5050266;28;20039;-72
2022/12/21 10:04:43;;;;;;;1999.90;999.90;;;;;;;4.27;100.00;98191.59;5050299;28;20095;-72
2022/12/21 10:07:47;;;;;;;1999.90;999.90;;;;;;;4.30;100.00;98189.22;5050371;28;20041;-72
2022/12/21 10:10:39;;;;;;;1999.90;999.90;;;;;;;4.21;100.00;98185.28;5050198;28;20025;-72
2022/12/21 10:13:22;;;;;;;1999.90;999.90;;;;;;;4.16;100.00;98190.63;5050177;28;20017;-73
2022/12/21 10:16:12;;;;;;;1999.90;999.90;;;;;;;4.04;100.00;98192.59;5050237;28;20033;-73
2022/12/21 10:18:53;;;;;;;1999.90;999.90;;;;;;;4.01;100.00;98198.50;5050595;28;20079;-73
2022/12/21 10:21:31;;;;;;;1999.90;999.90;;;;;;;4.08;100.00;98187.50;5050077;28;20033;-72
2022/12/21 10:23:57;;;;;;;1999.90;999.90;;;;;;;3.99;100.00;98192.53;5050133;28;20064;-73
2022/12/21 10:26:26;;;;;;;1999.90;999.90;;;;;;;4.02;100.00;98189.34;5053778;28;20025;-74
2022/12/21 10:29:10;;;;;;;1999.90;999.90;;;;;;;3.93;100.00;98185.41;5051010;28;20083;-72
2022/12/21 10:31:42;;;;;;;1999.90;999.90;;;;;;;3.97;100.00;98185.72;5049972;28;20087;-72
2022/12/21 10:34:32;;;;;;;1999.90;999.90;;;;;;;3.94;100.00;98189.75;5049859;28;20055;-72
2022/12/21 10:37:15;;;;;;;1999.90;999.90;;;;;;;4.10;100.00;98185.41;5046437;28;20076;-71
2022/12/21 10:39:40;;;;;;;1999.90;999.90;;;;;;;4.12;100.00;98184.06;5049984;28;20032;-72
2022/12/21 10:42:21;;;;;;;1999.90;999.90;;;;;;;4.13;100.00;98183.03;5049786;28;20029;-73
2022/12/21 10:44:48;;;;;;;1999.90;999.90;;;;;;;4.06;100.00;98176.13;5049726;28;20029;-72
2022/12/21 10:47:16;;;;;;;1999.90;999.90;;;;;;;4.05;100.00;98182.59;5049878;28;20114;-72
2022/12/21 10:49:52;;;;;;;1999.90;999.90;;;;;;;4.08;100.00;98182.09;5050044;28;20036;-72
2022/12/21 10:52:34;;;;;;;;;;;;;;;4.12;100.00;98172.44;5050336;28;20025;-72
2022/12/21 10:54:59;;;;;;;1999.90;999.90;;;;;;;4.08;100.00;98177.50;5049696;28;20301;-73
2022/12/21 10:57:27;;;;;;;1999.90;999.90;;;;;;;4.08;100.00;98169.41;5049899;28;20033;-72
2022/12/21 10:59:52;;;;;;;1999.90;999.90;;;;;;;4.03;100.00;98161.22;5052078;28;20037;-73
2022/12/21 11:02:47;;;;;;;1999.90;999.90;;;;;;;4.16;100.00;98166.28;5055646;28;20021;-73
2022/12/21 11:05:34;;;;;;;1999.90;999.90;;;;;;;4.25;100.00;98164.78;5049334;28;20043;-73
2022/12/21 11:08:14;;;;;;;1999.90;999.90;;;;;;;4.30;100.00;98164.84;5053121;28;20435;-73
2022/12/21 11:11:24;;;;;;;1999.90;999.90;;;;;;;4.37;100.00;98158.44;5052961;28;20029;-72
2022/12/21 11:13:56;;;;;;;1999.90;999.90;;;;;;;4.49;100.00;98162.66;5052753;28;20486;-73
2022/12/21 11:16:29;;;;;;;1999.90;999.90;;;;;;;4.47;100.00;98150.44;5052918;28;20036;-73